createdAt,value
2023-01-30T00:01:57.099Z,-0.40
2023-01-30T00:04:25.157Z,-0.40
2023-01-30T00:06:54.519Z,-0.40
2023-01-30T00:09:22.542Z,-0.40
2023-01-30T00:11:50.559Z,-0.40
2023-01-30T00:14:18.641Z,-0.40
2023-01-30T00:16:46.757Z,-0.40
2023-01-30T00:19:14.754Z,-0.40
2023-01-30T00:21:42.885Z,-0.40
2023-01-30T00:24:12.414Z,-0.40
2023-01-30T00:26:40.756Z,-0.40
2023-01-30T00:29:10.739Z,-0.40
2023-01-30T00:31:39.022Z,-0.50
2023-01-30T00:34:07.137Z,-0.50
2023-01-30T00:36:35.379Z,-0.50
2023-01-30T00:39:03.612Z,-0.50
2023-01-30T00:41:47.073Z,-0.50
2023-01-30T00:44:32.365Z,-0.50
2023-01-30T00:47:09.700Z,-0.50
2023-01-30T00:49:38.411Z,-0.50
2023-01-30T00:52:06.838Z,-0.40
2023-01-30T00:54:35.063Z,-0.50
2023-01-30T00:57:04.585Z,-0.50
2023-01-30T00:59:32.667Z,-0.50
2023-01-30T01:02:00.943Z,-0.50
2023-01-30T01:04:29.187Z,-0.50
2023-01-30T01:06:57.151Z,-0.50
2023-01-30T01:09:25.179Z,-0.50
2023-01-30T01:11:53.888Z,-0.50
2023-01-30T01:14:23.302Z,-0.60
2023-01-30T01:16:51.451Z,-0.60
2023-01-30T01:19:19.513Z,-0.60
2023-01-30T01:21:48.103Z,-0.60
2023-01-30T01:24:17.167Z,-0.60
2023-01-30T01:26:45.935Z,-0.50
2023-01-30T01:29:15.660Z,-0.50
2023-01-30T01:31:45.495Z,-0.50
2023-01-30T01:34:13.777Z,-0.50
2023-01-30T01:36:54.412Z,-0.50
2023-01-30T01:39:23.438Z,-0.50
2023-01-30T01:41:51.201Z,-0.50
2023-01-30T01:44:19.214Z,-0.40
2023-01-30T01:46:52.932Z,-0.40
2023-01-30T01:49:24.899Z,-0.40
2023-01-30T01:51:57.861Z,-0.40
2023-01-30T01:54:30.653Z,-0.40
2023-01-30T01:57:04.009Z,-0.40
2023-01-30T01:59:35.961Z,-0.40
2023-01-30T02:02:10.179Z,-0.40
2023-01-30T02:04:58.507Z,-0.40
2023-01-30T02:07:27.343Z,-0.40
2023-01-30T02:09:55.374Z,-0.40
2023-01-30T02:12:23.443Z,-0.40
2023-01-30T02:14:53.861Z,-0.40
2023-01-30T02:17:24.607Z,-0.40
2023-01-30T02:19:58.532Z,-0.30
2023-01-30T02:22:52.147Z,-0.30
2023-01-30T02:25:56.478Z,-0.30
2023-01-30T02:28:46.752Z,-0.30
2023-01-30T02:31:25.260Z,-0.30
2023-01-30T02:34:04.857Z,-0.30
2023-01-30T02:36:42.470Z,-0.30
2023-01-30T02:39:19.654Z,-0.30
2023-01-30T02:41:57.732Z,-0.30
2023-01-30T02:44:33.009Z,-0.30
2023-01-30T02:47:07.643Z,-0.30
2023-01-30T02:49:39.926Z,-0.30
2023-01-30T02:52:12.553Z,-0.30
2023-01-30T02:54:40.820Z,-0.30
2023-01-30T02:57:20.399Z,0.30
2023-01-30T03:00:01.231Z,-0.30
2023-01-30T03:03:10.937Z,-0.20
2023-01-30T03:06:15.922Z,-0.20
2023-01-30T03:08:53.877Z,-0.20
2023-01-30T03:11:26.085Z,-0.20
2023-01-30T03:13:57.110Z,-0.20
2023-01-30T03:16:29.333Z,-0.30
2023-01-30T03:19:02.050Z,-0.30
2023-01-30T03:21:30.078Z,-0.30
2023-01-30T03:23:59.295Z,-0.30
2023-01-30T03:26:31.685Z,-0.30
2023-01-30T03:29:03.082Z,-0.30
2023-01-30T03:31:31.442Z,-0.30
2023-01-30T03:34:02.491Z,-0.30
2023-01-30T03:36:32.052Z,-0.30
2023-01-30T03:39:00.280Z,-0.20
2023-01-30T03:41:28.390Z,-0.30
2023-01-30T03:43:56.349Z,-0.20
2023-01-30T03:46:24.664Z,-0.20
2023-01-30T03:48:52.769Z,-0.20
2023-01-30T03:51:22.236Z,-0.20
2023-01-30T03:53:50.265Z,-0.20
2023-01-30T03:56:18.864Z,-0.20
2023-01-30T03:58:47.363Z,-0.20
2023-01-30T04:01:21.881Z,-0.10
2023-01-30T04:03:49.925Z,-0.10
2023-01-30T04:06:18.333Z,-0.10
2023-01-30T04:08:48.148Z,-0.10
2023-01-30T04:11:29.182Z,-0.10
2023-01-30T04:13:57.378Z,-0.10
2023-01-30T04:16:28.020Z,-0.10
2023-01-30T04:19:30.505Z,-0.10
2023-01-30T04:21:58.626Z,-0.10
2023-01-30T04:24:28.858Z,-0.10
2023-01-30T04:26:56.900Z,-0.10
2023-01-30T04:29:27.030Z,-0.10
2023-01-30T04:31:56.459Z,-0.10
2023-01-30T04:34:27.822Z,-0.10
2023-01-30T04:36:55.775Z,-0.10
2023-01-30T04:39:24.126Z,0.00
2023-01-30T04:41:53.834Z,0.00
2023-01-30T04:44:22.009Z,0.00
2023-01-30T04:46:57.801Z,0.00
2023-01-30T04:49:25.907Z,0.10
2023-01-30T04:51:55.091Z,0.10
2023-01-30T04:54:24.247Z,0.10
2023-01-30T04:56:53.761Z,0.10
2023-01-30T04:59:21.780Z,0.10
2023-01-30T05:01:51.379Z,0.20
2023-01-30T05:04:19.471Z,0.20
2023-01-30T05:06:47.684Z,0.80
2023-01-30T05:09:15.947Z,0.20
2023-01-30T05:11:44.116Z,0.20
2023-01-30T05:14:13.567Z,0.20
2023-01-30T05:16:41.585Z,0.20
2023-01-30T05:19:11.806Z,0.20
2023-01-30T05:21:39.870Z,0.20
2023-01-30T05:24:08.663Z,0.20
2023-01-30T05:26:36.690Z,0.20
2023-01-30T05:29:04.771Z,0.20
2023-01-30T05:31:35.596Z,0.20
2023-01-30T05:34:03.832Z,0.20
2023-01-30T05:36:31.973Z,0.20
2023-01-30T05:39:00.131Z,0.30
2023-01-30T05:41:28.293Z,0.40
2023-01-30T05:43:56.298Z,0.40
2023-01-30T05:46:24.353Z,0.50
2023-01-30T05:48:53.729Z,0.50
2023-01-30T05:51:23.825Z,0.50
2023-01-30T05:53:52.411Z,0.60
2023-01-30T05:56:20.966Z,0.60
2023-01-30T05:58:52.567Z,0.60
2023-01-30T06:01:21.001Z,0.60
2023-01-30T06:03:49.396Z,0.60
2023-01-30T06:06:19.678Z,0.60
2023-01-30T06:08:47.807Z,0.70
2023-01-30T06:11:17.964Z,0.70
2023-01-30T06:13:46.559Z,0.70
2023-01-30T06:16:16.164Z,0.70
2023-01-30T06:18:46.023Z,0.70
2023-01-30T06:21:15.262Z,0.70
2023-01-30T06:23:45.158Z,0.70
2023-01-30T06:26:13.308Z,0.80
2023-01-30T06:28:41.937Z,0.70
2023-01-30T06:31:10.457Z,0.70
2023-01-30T06:33:38.505Z,0.80
2023-01-30T06:36:07.002Z,0.80
2023-01-30T06:38:35.469Z,0.80
2023-01-30T06:41:04.914Z,0.80
2023-01-30T06:43:33.345Z,0.80
2023-01-30T06:46:01.632Z,0.80
2023-01-30T06:48:29.617Z,0.80
2023-01-30T06:50:57.641Z,0.80
2023-01-30T06:53:30.790Z,0.80
2023-01-30T06:55:59.566Z,0.90
2023-01-30T06:58:29.051Z,0.90
2023-01-30T07:00:57.351Z,0.90
2023-01-30T07:03:25.676Z,1.00
2023-01-30T07:05:53.741Z,1.00
2023-01-30T07:08:23.334Z,1.00
2023-01-30T07:10:52.229Z,1.00
2023-01-30T07:13:20.484Z,1.00
2023-01-30T07:15:50.524Z,1.00
2023-01-30T07:18:18.554Z,1.00
2023-01-30T07:20:48.719Z,1.00
2023-01-30T07:23:17.840Z,1.00
2023-01-30T07:25:45.930Z,1.00
2023-01-30T07:28:13.979Z,1.10
2023-01-30T07:30:42.100Z,1.10
2023-01-30T07:33:11.594Z,1.10
2023-01-30T07:35:40.131Z,1.10
2023-01-30T07:38:08.215Z,1.10
2023-01-30T07:40:36.291Z,1.10
2023-01-30T07:43:05.823Z,1.20
2023-01-30T07:45:38.433Z,1.10
2023-01-30T07:48:06.582Z,1.10
2023-01-30T07:50:35.922Z,1.10
2023-01-30T07:53:05.024Z,1.10
2023-01-30T07:55:33.298Z,1.10
2023-01-30T07:58:01.424Z,1.10
2023-01-30T08:00:29.560Z,1.10
2023-01-30T08:02:57.694Z,1.10
2023-01-30T08:05:26.209Z,1.10
2023-01-30T08:07:56.966Z,1.10
2023-01-30T08:10:25.467Z,1.10
2023-01-30T08:12:54.517Z,1.10
2023-01-30T08:15:23.191Z,1.10
2023-01-30T08:17:58.497Z,1.20
2023-01-30T08:20:28.632Z,1.20
2023-01-30T08:23:00.645Z,1.20
2023-01-30T08:25:29.370Z,1.30
2023-01-30T08:27:59.275Z,1.30
2023-01-30T08:30:27.364Z,1.30
2023-01-30T08:32:55.504Z,1.30
2023-01-30T08:35:23.753Z,1.30
2023-01-30T08:37:51.785Z,1.30
2023-01-30T08:40:21.490Z,1.40
2023-01-30T08:42:49.504Z,1.30
2023-01-30T08:45:17.914Z,1.40
2023-01-30T08:47:47.650Z,1.40
2023-01-30T08:50:15.695Z,1.40
2023-01-30T08:52:43.765Z,1.40
2023-01-30T08:55:12.100Z,1.40
2023-01-30T08:57:41.695Z,1.40
2023-01-30T09:00:11.431Z,1.50
2023-01-30T09:02:40.087Z,1.50
2023-01-30T09:05:10.958Z,1.50
2023-01-30T09:07:38.944Z,1.50
2023-01-30T09:10:07.773Z,1.60
2023-01-30T09:12:35.742Z,1.50
2023-01-30T09:15:05.931Z,1.60
2023-01-30T09:17:33.879Z,1.60
2023-01-30T09:20:01.934Z,1.60
2023-01-30T09:22:29.950Z,1.60
2023-01-30T09:24:58.991Z,1.60
2023-01-30T09:27:27.062Z,1.60
2023-01-30T09:29:55.085Z,1.50
2023-01-30T09:32:24.542Z,1.50
2023-01-30T09:34:52.563Z,1.60
2023-01-30T09:37:20.546Z,1.60
2023-01-30T09:39:48.808Z,1.60
2023-01-30T09:42:33.283Z,1.60
2023-01-30T09:45:22.949Z,1.60
2023-01-30T09:48:01.812Z,1.60
2023-01-30T09:50:55.358Z,1.60
2023-01-30T09:53:31.357Z,1.60
2023-01-30T09:56:00.405Z,1.70
2023-01-30T09:58:38.706Z,1.60
2023-01-30T10:01:16.590Z,1.60
2023-01-30T10:03:57.298Z,1.60
2023-01-30T10:06:25.268Z,1.60
2023-01-30T10:08:59.730Z,1.60
2023-01-30T10:11:42.503Z,1.70
2023-01-30T10:14:25.826Z,1.60
2023-01-30T10:17:01.371Z,1.70
2023-01-30T10:19:55.382Z,1.70
2023-01-30T10:22:35.668Z,1.80
2023-01-30T10:25:14.101Z,1.80
2023-01-30T10:27:49.685Z,1.80
2023-01-30T10:30:19.043Z,1.80
2023-01-30T10:32:52.561Z,1.80
2023-01-30T10:35:26.196Z,1.90
2023-01-30T10:38:04.041Z,1.90
2023-01-30T10:40:38.622Z,1.90
2023-01-30T10:43:16.424Z,1.90
2023-01-30T10:45:51.450Z,2.00
2023-01-30T10:48:43.287Z,2.00
2023-01-30T10:51:25.638Z,2.00
2023-01-30T10:53:58.720Z,2.10
2023-01-30T10:56:38.180Z,2.10
2023-01-30T10:59:16.963Z,2.10
2023-01-30T11:01:50.833Z,2.00
2023-01-30T11:04:27.931Z,2.00
2023-01-30T11:06:58.551Z,2.10
2023-01-30T11:09:38.246Z,2.10
2023-01-30T11:12:08.728Z,2.10
2023-01-30T11:15:00.125Z,2.10
2023-01-30T11:17:35.386Z,2.20
2023-01-30T11:20:10.808Z,2.20
2023-01-30T11:22:48.206Z,2.20
2023-01-30T11:25:18.546Z,2.20
2023-01-30T11:27:55.099Z,2.20
2023-01-30T11:30:27.840Z,2.20
2023-01-30T11:33:09.088Z,2.20
2023-01-30T11:35:43.487Z,2.20
2023-01-30T11:38:21.292Z,2.20
2023-01-30T11:40:49.340Z,2.30
2023-01-30T11:43:17.381Z,2.30
2023-01-30T11:45:49.069Z,2.30
2023-01-30T11:48:33.014Z,2.30
2023-01-30T11:51:10.875Z,2.30
2023-01-30T11:53:43.866Z,2.40
2023-01-30T11:56:18.824Z,2.40
2023-01-30T11:58:57.972Z,2.40
2023-01-30T12:01:29.159Z,2.40
2023-01-30T12:03:58.897Z,2.40
2023-01-30T12:06:31.786Z,2.60
2023-01-30T12:09:01.562Z,2.50
2023-01-30T12:11:32.646Z,2.50
2023-01-30T12:14:17.666Z,2.50
2023-01-30T12:16:55.243Z,2.40
2023-01-30T12:19:49.796Z,2.50
2023-01-30T12:22:23.855Z,2.50
2023-01-30T12:24:59.942Z,2.50
2023-01-30T12:27:44.508Z,2.50
2023-01-30T12:30:25.803Z,2.50
2023-01-30T12:32:59.489Z,2.60
2023-01-30T12:35:35.796Z,2.60
2023-01-30T12:38:12.801Z,2.60
2023-01-30T12:40:53.484Z,2.60
2023-01-30T12:43:40.428Z,2.70
2023-01-30T12:46:18.273Z,2.70
2023-01-30T12:49:12.069Z,2.70
2023-01-30T12:52:02.688Z,2.70
2023-01-30T12:54:43.888Z,2.80
2023-01-30T12:57:23.435Z,2.80
2023-01-30T13:00:14.532Z,2.80
2023-01-30T13:03:03.621Z,2.80
2023-01-30T13:05:41.509Z,2.80
2023-01-30T13:08:33.518Z,2.90
2023-01-30T13:11:16.513Z,2.90
2023-01-30T13:13:53.926Z,3.00
2023-01-30T13:16:32.386Z,3.10
2023-01-30T13:19:07.028Z,3.10
2023-01-30T13:21:42.494Z,3.20
2023-01-30T13:24:21.442Z,3.20
2023-01-30T13:26:50.867Z,3.20
2023-01-30T13:29:29.580Z,3.40
2023-01-30T13:32:02.382Z,3.20
2023-01-30T13:34:34.672Z,3.30
2023-01-30T13:37:06.673Z,3.30
2023-01-30T13:39:42.295Z,3.40
2023-01-30T13:42:25.414Z,3.40
2023-01-30T13:44:56.161Z,3.50
2023-01-30T13:47:42.085Z,3.50
2023-01-30T13:50:37.664Z,3.50
2023-01-30T13:53:09.847Z,3.60
2023-01-30T13:55:43.989Z,3.70
2023-01-30T13:58:34.536Z,3.70
2023-01-30T14:01:04.415Z,3.70
2023-01-30T14:03:33.642Z,3.70
2023-01-30T14:06:20.662Z,3.80
2023-01-30T14:08:54.968Z,3.80
2023-01-30T14:11:45.161Z,3.80
2023-01-30T14:14:31.820Z,3.80
2023-01-30T14:17:10.855Z,3.80
2023-01-30T14:19:42.547Z,3.80
2023-01-30T14:22:36.186Z,3.90
2023-01-30T14:25:36.724Z,3.90
2023-01-30T14:28:45.450Z,3.90
2023-01-30T14:31:14.859Z,3.90
2023-01-30T14:33:52.063Z,3.90
2023-01-30T14:36:37.641Z,4.70
2023-01-30T14:39:39.796Z,3.90
2023-01-30T14:42:24.380Z,4.00
2023-01-30T14:45:17.389Z,4.10
2023-01-30T14:47:47.274Z,4.20
2023-01-30T14:50:23.569Z,4.20
2023-01-30T14:52:56.897Z,4.20
2023-01-30T14:55:29.382Z,4.30
2023-01-30T14:57:59.827Z,4.30
2023-01-30T15:00:32.255Z,4.30
2023-01-30T15:03:04.356Z,4.30
2023-01-30T15:05:38.305Z,4.70
2023-01-30T15:08:11.266Z,4.50
2023-01-30T15:10:55.361Z,4.50
2023-01-30T15:13:43.588Z,4.50
2023-01-30T15:16:25.480Z,4.60
2023-01-30T15:19:08.389Z,4.60
2023-01-30T15:21:49.194Z,4.60
2023-01-30T15:24:43.746Z,4.60
2023-01-30T15:27:18.929Z,4.50
2023-01-30T15:30:12.518Z,4.60
2023-01-30T15:32:42.216Z,4.50
2023-01-30T15:35:24.646Z,4.40
2023-01-30T15:37:56.246Z,4.40
2023-01-30T15:40:26.376Z,4.40
2023-01-30T15:43:07.841Z,4.40
2023-01-30T15:45:45.019Z,4.40
2023-01-30T15:48:29.590Z,4.40
2023-01-30T15:51:00.256Z,4.30
2023-01-30T15:53:32.927Z,4.30
2023-01-30T15:56:03.234Z,4.30
2023-01-30T15:58:32.952Z,4.30
2023-01-30T16:01:02.462Z,4.20
2023-01-30T16:03:36.708Z,4.10
2023-01-30T16:06:05.726Z,4.30
2023-01-30T16:08:37.293Z,4.10
2023-01-30T16:11:05.570Z,4.10
2023-01-30T16:13:34.947Z,4.00
2023-01-30T16:16:07.272Z,4.00
2023-01-30T16:18:39.989Z,3.90
2023-01-30T16:21:10.943Z,4.00
2023-01-30T16:23:43.993Z,3.90
2023-01-30T16:26:17.886Z,3.90
2023-01-30T16:28:46.443Z,3.90
2023-01-30T16:31:14.992Z,3.90
2023-01-30T16:33:43.074Z,4.00
2023-01-30T16:36:34.007Z,3.90
2023-01-30T16:39:03.463Z,3.90
2023-01-30T16:41:36.136Z,3.90
2023-01-30T16:44:21.361Z,3.90
2023-01-30T16:46:56.983Z,3.90
2023-01-30T16:49:31.565Z,3.90
2023-01-30T16:52:06.369Z,3.90
2023-01-30T16:54:37.873Z,3.90
2023-01-30T16:57:07.119Z,3.90
2023-01-30T16:59:36.274Z,3.90
2023-01-30T17:02:07.840Z,3.90
2023-01-30T17:04:41.239Z,3.90
2023-01-30T17:07:33.783Z,3.90
2023-01-30T17:10:03.652Z,4.00
2023-01-30T17:12:43.741Z,4.00
2023-01-30T17:15:35.152Z,4.30
2023-01-30T17:18:03.536Z,4.00
2023-01-30T17:20:47.499Z,4.00
2023-01-30T17:23:20.259Z,4.00
2023-01-30T17:25:50.498Z,4.00
2023-01-30T17:28:24.294Z,4.00
2023-01-30T17:30:52.701Z,4.00
2023-01-30T17:33:20.796Z,4.00
2023-01-30T17:35:48.859Z,4.00
2023-01-30T17:38:17.418Z,4.10
2023-01-30T17:40:46.511Z,4.10
2023-01-30T17:43:15.980Z,4.10
2023-01-30T17:45:44.222Z,4.10
2023-01-30T17:48:13.650Z,4.00
2023-01-30T17:50:41.901Z,3.90
2023-01-30T17:53:09.881Z,3.90
2023-01-30T17:55:38.279Z,3.90
2023-01-30T17:58:06.447Z,3.90
2023-01-30T18:00:35.924Z,3.90
2023-01-30T18:03:03.953Z,3.90
2023-01-30T18:05:32.228Z,4.10
2023-01-30T18:08:01.451Z,4.20
2023-01-30T18:10:29.741Z,3.80
2023-01-30T18:12:57.736Z,3.80
2023-01-30T18:15:25.752Z,3.90
2023-01-30T18:17:56.574Z,3.80
2023-01-30T18:20:24.760Z,3.80
2023-01-30T18:22:53.060Z,3.80
2023-01-30T18:25:21.391Z,3.90
2023-01-30T18:27:49.720Z,3.90
2023-01-30T18:30:18.517Z,3.90
2023-01-30T18:32:53.673Z,4.00
2023-01-30T18:35:23.501Z,4.00
2023-01-30T18:37:51.844Z,4.00
2023-01-30T18:40:20.719Z,4.00
2023-01-30T18:42:49.933Z,4.00
2023-01-30T18:45:18.270Z,4.00
2023-01-30T18:47:46.541Z,4.00
2023-01-30T18:50:14.833Z,4.00
2023-01-30T18:52:44.223Z,4.00
2023-01-30T18:55:12.234Z,4.00
2023-01-30T18:57:40.280Z,4.10
2023-01-30T19:00:09.570Z,4.10
2023-01-30T19:02:37.589Z,4.00
2023-01-30T19:05:06.109Z,4.00
2023-01-30T19:07:35.920Z,4.00
2023-01-30T19:10:05.764Z,3.90
2023-01-30T19:12:51.086Z,3.80
2023-01-30T19:15:19.138Z,3.80
2023-01-30T19:17:47.378Z,3.80
2023-01-30T19:20:15.372Z,3.80
2023-01-30T19:22:43.565Z,3.80
2023-01-30T19:25:12.940Z,3.80
2023-01-30T19:27:42.148Z,3.80
2023-01-30T19:30:11.413Z,3.80
2023-01-30T19:32:39.591Z,3.90
2023-01-30T19:35:08.464Z,3.90
2023-01-30T19:37:38.426Z,3.90
2023-01-30T19:40:09.623Z,3.90
2023-01-30T19:42:42.542Z,3.90
2023-01-30T19:45:13.473Z,3.80
2023-01-30T19:47:41.430Z,3.70
2023-01-30T19:50:10.654Z,3.60
2023-01-30T19:52:38.678Z,3.60
2023-01-30T19:55:07.403Z,3.50
2023-01-30T19:57:35.885Z,3.40
2023-01-30T20:00:06.197Z,3.30
2023-01-30T20:02:34.158Z,3.20
2023-01-30T20:05:02.568Z,3.10
2023-01-30T20:07:33.640Z,3.10
2023-01-30T20:10:02.062Z,3.00
2023-01-30T20:12:31.892Z,3.00
2023-01-30T20:14:59.887Z,2.90
2023-01-30T20:17:29.348Z,2.80
2023-01-30T20:19:57.295Z,2.70
2023-01-30T20:22:25.274Z,2.70
2023-01-30T20:24:53.202Z,2.60
2023-01-30T20:27:21.209Z,2.50
2023-01-30T20:29:49.248Z,2.40
2023-01-30T20:32:17.534Z,2.40
2023-01-30T20:34:47.036Z,2.40
2023-01-30T20:37:14.996Z,2.30
2023-01-30T20:39:42.935Z,2.30
2023-01-30T20:42:11.041Z,2.20
2023-01-30T20:44:39.778Z,2.20
2023-01-30T20:47:09.121Z,2.10
2023-01-30T20:49:37.352Z,2.10
2023-01-30T20:52:06.714Z,2.00
2023-01-30T20:54:35.655Z,2.00
2023-01-30T20:57:05.591Z,2.00
2023-01-30T20:59:33.641Z,2.00
2023-01-30T21:02:01.980Z,2.00
2023-01-30T21:04:30.164Z,2.00
2023-01-30T21:06:58.234Z,2.10
2023-01-30T21:09:27.594Z,2.10
2023-01-30T21:11:56.309Z,2.20
2023-01-30T21:14:26.491Z,2.20
2023-01-30T21:16:54.740Z,2.30
2023-01-30T21:19:22.757Z,2.30
2023-01-30T21:21:53.411Z,2.30
2023-01-30T21:24:23.737Z,2.30
2023-01-30T21:26:53.936Z,2.40
2023-01-30T21:29:25.554Z,2.40
2023-01-30T21:31:54.309Z,2.40
2023-01-30T21:34:22.513Z,2.40
2023-01-30T21:37:04.407Z,2.40
2023-01-30T21:39:46.449Z,2.40
2023-01-30T21:42:33.299Z,2.40
2023-01-30T21:45:02.291Z,2.40
2023-01-30T21:47:30.333Z,2.40
2023-01-30T21:49:58.410Z,2.40
2023-01-30T21:52:26.692Z,2.40
2023-01-30T21:54:54.698Z,2.50
2023-01-30T21:57:24.254Z,2.50
2023-01-30T21:59:52.278Z,2.40
2023-01-30T22:02:20.245Z,2.40
2023-01-30T22:04:48.329Z,2.40
2023-01-30T22:07:16.463Z,2.40
2023-01-30T22:09:44.370Z,2.40
2023-01-30T22:12:12.405Z,2.40
2023-01-30T22:14:41.743Z,2.30
2023-01-30T22:17:09.662Z,2.30
2023-01-30T22:19:37.668Z,2.30
2023-01-30T22:22:05.715Z,2.30
2023-01-30T22:24:33.845Z,2.20
2023-01-30T22:27:02.026Z,2.20
2023-01-30T22:29:30.134Z,2.10
2023-01-30T22:31:59.542Z,2.10
2023-01-30T22:34:27.730Z,2.00
2023-01-30T22:36:55.677Z,1.90
2023-01-30T22:39:23.629Z,2.00
2023-01-30T22:41:51.985Z,2.00
2023-01-30T22:44:19.967Z,2.10
2023-01-30T22:46:51.199Z,2.10
2023-01-30T22:49:20.636Z,2.20
2023-01-30T22:51:49.067Z,2.20
2023-01-30T22:54:17.770Z,2.20
2023-01-30T22:56:48.469Z,2.30
2023-01-30T22:59:16.882Z,2.20
2023-01-30T23:01:46.848Z,2.30
2023-01-30T23:04:16.863Z,2.30
2023-01-30T23:06:47.281Z,2.30
2023-01-30T23:09:17.833Z,2.30
2023-01-30T23:12:08.945Z,2.30
2023-01-30T23:14:36.920Z,2.30
2023-01-30T23:17:26.299Z,2.20
2023-01-30T23:19:53.531Z,2.30
2023-01-30T23:22:23.366Z,2.20
2023-01-30T23:24:51.886Z,2.20
2023-01-30T23:27:19.934Z,2.20
2023-01-30T23:29:48.157Z,2.10
2023-01-30T23:32:18.971Z,2.10
2023-01-30T23:34:47.366Z,2.10
2023-01-30T23:37:15.363Z,2.00
2023-01-30T23:39:44.741Z,2.00
2023-01-30T23:42:12.827Z,1.90
2023-01-30T23:44:40.832Z,1.90
2023-01-30T23:47:09.937Z,1.90
2023-01-30T23:49:38.032Z,1.80
2023-01-30T23:52:06.169Z,1.90
2023-01-30T23:54:34.103Z,1.80
2023-01-30T23:57:03.486Z,1.80
2023-01-30T23:59:31.688Z,1.80
